createdAt,value
2023-02-07T00:00:57.781Z,3.40
2023-02-07T00:03:02.762Z,3.20
2023-02-07T00:05:11.918Z,3.22
2023-02-07T00:07:17.255Z,2.85
2023-02-07T00:09:22.312Z,3.17
2023-02-07T00:11:28.448Z,2.80
2023-02-07T00:13:33.695Z,3.03
2023-02-07T00:15:38.970Z,3.75
2023-02-07T00:17:44.344Z,3.70
2023-02-07T00:19:52.266Z,3.63
2023-02-07T00:22:00.177Z,4.07
2023-02-07T00:26:11.257Z,3.60
2023-02-07T00:28:17.221Z,3.80
2023-02-07T00:30:22.526Z,3.47
2023-02-07T00:32:29.956Z,3.60
2023-02-07T00:34:36.493Z,3.45
2023-02-07T00:38:53.136Z,3.42
2023-02-07T00:40:59.209Z,3.30
2023-02-07T00:43:04.168Z,3.35
2023-02-07T00:45:11.167Z,2.95
2023-02-07T00:47:16.110Z,3.35
2023-02-07T00:49:21.829Z,3.40
2023-02-07T00:51:27.345Z,3.00
2023-02-07T00:53:33.057Z,3.25
2023-02-07T00:55:42.186Z,3.80
2023-02-07T00:57:47.106Z,3.50
2023-02-07T00:59:53.568Z,3.47
2023-02-07T01:01:58.952Z,3.72
2023-02-07T01:04:05.346Z,3.80
2023-02-07T01:06:12.289Z,3.50
2023-02-07T01:08:19.852Z,3.75
2023-02-07T01:10:24.907Z,3.95
2023-02-07T01:12:32.946Z,4.13
2023-02-07T01:16:42.988Z,3.88
2023-02-07T01:18:50.480Z,4.07
2023-02-07T01:20:55.802Z,4.63
2023-02-07T01:23:00.811Z,4.90
2023-02-07T01:25:06.069Z,4.05
2023-02-07T01:27:11.101Z,4.13
2023-02-07T01:29:19.476Z,4.88
2023-02-07T01:33:30.438Z,4.78
2023-02-07T01:35:35.611Z,4.85
2023-02-07T01:37:40.906Z,4.68
2023-02-07T01:39:45.870Z,4.53
2023-02-07T01:41:51.446Z,4.70
2023-02-07T01:44:00.857Z,4.55
2023-02-07T01:46:08.745Z,4.55
2023-02-07T01:48:20.064Z,4.97
2023-02-07T01:50:25.806Z,4.43
2023-02-07T01:52:42.279Z,4.70
2023-02-07T01:54:51.696Z,4.53
2023-02-07T01:57:00.628Z,5.05
2023-02-07T01:59:09.051Z,5.68
2023-02-07T02:01:27.887Z,5.20
2023-02-07T02:03:32.849Z,5.55
2023-02-07T02:05:39.912Z,5.88
2023-02-07T02:07:46.207Z,5.82
2023-02-07T02:09:51.382Z,5.82
2023-02-07T02:12:19.428Z,5.85
2023-02-07T02:14:43.311Z,5.80
2023-02-07T02:17:01.693Z,5.65
2023-02-07T02:19:53.926Z,6.00
2023-02-07T02:22:37.341Z,5.80
2023-02-07T02:25:32.224Z,6.32
2023-02-07T02:28:03.972Z,6.30
2023-02-07T02:30:49.851Z,6.28
2023-02-07T02:33:29.870Z,6.75
2023-02-07T02:35:43.547Z,6.55
2023-02-07T02:37:58.684Z,6.00
2023-02-07T02:40:10.607Z,6.55
2023-02-07T02:42:26.117Z,6.63
2023-02-07T02:44:38.366Z,6.03
2023-02-07T02:46:44.956Z,6.10
2023-02-07T02:48:54.907Z,6.77
2023-02-07T02:51:00.429Z,8.90
2023-02-07T02:53:05.624Z,10.57
2023-02-07T02:55:13.050Z,10.27
2023-02-07T02:57:47.113Z,8.65
2023-02-07T03:00:14.009Z,8.15
2023-02-07T03:02:32.586Z,8.43
2023-02-07T03:05:12.513Z,8.35
2023-02-07T03:07:40.932Z,7.85
2023-02-07T03:09:57.457Z,7.65
2023-02-07T03:12:18.494Z,8.13
2023-02-07T03:14:31.679Z,8.73
2023-02-07T03:16:44.082Z,8.45
2023-02-07T03:18:57.502Z,8.43
2023-02-07T03:21:13.223Z,7.88
2023-02-07T03:23:20.110Z,7.43
2023-02-07T03:25:27.489Z,7.07
2023-02-07T03:27:34.399Z,8.20
2023-02-07T03:29:46.659Z,7.38
2023-02-07T03:31:58.926Z,7.68
2023-02-07T03:34:11.593Z,7.45
2023-02-07T03:36:25.327Z,8.23
2023-02-07T03:38:30.719Z,8.73
2023-02-07T03:40:44.077Z,7.95
2023-02-07T03:42:53.747Z,8.77
2023-02-07T03:45:02.195Z,8.35
2023-02-07T03:47:08.326Z,7.85
2023-02-07T03:49:16.878Z,8.27
2023-02-07T03:51:25.049Z,8.55
2023-02-07T03:55:36.937Z,9.23
2023-02-07T03:57:42.489Z,8.25
2023-02-07T03:59:47.439Z,9.85
2023-02-07T04:01:52.398Z,9.15
2023-02-07T04:03:58.123Z,10.10
2023-02-07T04:06:03.041Z,9.60
2023-02-07T04:08:10.681Z,10.38
2023-02-07T04:12:21.062Z,8.77
2023-02-07T04:14:26.346Z,9.80
2023-02-07T04:16:31.763Z,8.10
2023-02-07T04:18:37.561Z,9.25
2023-02-07T04:20:42.445Z,9.82
2023-02-07T04:22:47.848Z,9.93
2023-02-07T04:24:55.727Z,10.05
2023-02-07T04:29:06.707Z,9.23
2023-02-07T04:31:11.940Z,9.57
2023-02-07T04:33:20.907Z,10.07
2023-02-07T04:35:25.818Z,9.80
2023-02-07T04:37:31.201Z,9.93
2023-02-07T04:39:36.964Z,10.23
2023-02-07T04:41:44.504Z,9.98
2023-02-07T04:45:55.277Z,9.77
2023-02-07T04:48:00.276Z,10.27
2023-02-07T04:50:05.324Z,10.95
2023-02-07T04:52:10.908Z,10.68
2023-02-07T04:54:15.903Z,9.75
2023-02-07T04:56:21.963Z,9.50
2023-02-07T04:58:29.854Z,10.15
2023-02-07T05:00:35.691Z,9.48
2023-02-07T05:02:40.615Z,10.00
2023-02-07T05:04:45.541Z,9.80
2023-02-07T05:06:51.102Z,9.20
2023-02-07T05:08:56.014Z,10.40
2023-02-07T05:11:01.546Z,11.13
2023-02-07T05:13:07.524Z,10.75
2023-02-07T05:15:16.369Z,10.65
2023-02-07T05:17:21.311Z,10.52
2023-02-07T05:19:26.241Z,11.15
2023-02-07T05:21:31.761Z,12.40
2023-02-07T05:23:36.691Z,12.35
2023-02-07T05:25:44.149Z,11.27
2023-02-07T05:27:49.208Z,11.35
2023-02-07T05:29:54.565Z,11.40
2023-02-07T05:32:14.537Z,9.93
2023-02-07T05:34:20.338Z,11.05
2023-02-07T05:36:25.262Z,13.98
2023-02-07T05:38:30.658Z,12.73
2023-02-07T05:40:36.651Z,11.45
2023-02-07T05:42:41.710Z,11.02
2023-02-07T05:44:47.157Z,11.05
2023-02-07T05:46:52.740Z,10.93
2023-02-07T05:49:00.343Z,10.82
2023-02-07T05:51:05.274Z,10.77
2023-02-07T05:53:13.256Z,11.02
2023-02-07T05:55:19.666Z,10.45
2023-02-07T05:57:24.782Z,10.50
2023-02-07T05:59:30.087Z,11.02
2023-02-07T06:01:37.355Z,10.02
2023-02-07T06:03:42.481Z,10.23
2023-02-07T06:05:50.359Z,9.57
2023-02-07T06:07:55.848Z,10.27
2023-02-07T06:10:00.787Z,11.13
2023-02-07T06:12:06.537Z,10.68
2023-02-07T06:14:11.507Z,10.48
2023-02-07T06:16:16.970Z,10.40
2023-02-07T06:18:21.893Z,10.80
2023-02-07T06:20:26.849Z,10.70
2023-02-07T06:22:34.825Z,9.80
2023-02-07T06:26:46.822Z,10.07
2023-02-07T06:28:52.031Z,10.48
2023-02-07T06:30:57.080Z,10.35
2023-02-07T06:33:02.056Z,10.30
2023-02-07T06:35:09.975Z,10.68
2023-02-07T06:39:22.959Z,9.65
2023-02-07T06:41:28.094Z,10.65
2023-02-07T06:43:33.593Z,10.88
2023-02-07T06:45:41.667Z,10.82
2023-02-07T06:47:47.749Z,10.48
2023-02-07T06:49:53.067Z,10.57
2023-02-07T06:51:58.022Z,9.90
2023-02-07T06:54:08.102Z,11.05
2023-02-07T06:56:18.628Z,9.73
2023-02-07T06:58:24.231Z,10.70
2023-02-07T07:00:30.126Z,10.45
2023-02-07T07:02:35.244Z,10.48
2023-02-07T07:04:40.897Z,9.52
2023-02-07T07:06:46.195Z,9.80
2023-02-07T07:08:52.244Z,9.10
2023-02-07T07:10:57.809Z,9.07
2023-02-07T07:13:05.408Z,10.50
2023-02-07T07:15:12.204Z,11.00
2023-02-07T07:17:17.469Z,10.40
2023-02-07T07:19:22.414Z,11.45
2023-02-07T07:21:28.153Z,11.75
2023-02-07T07:23:33.324Z,13.20
2023-02-07T07:25:39.088Z,12.60
2023-02-07T07:27:44.557Z,12.70
2023-02-07T07:29:52.120Z,13.02
2023-02-07T07:34:02.718Z,11.65
2023-02-07T07:36:09.962Z,13.88
2023-02-07T07:38:15.528Z,13.40
2023-02-07T07:40:20.980Z,13.90
2023-02-07T07:42:26.355Z,13.23
2023-02-07T07:44:46.110Z,12.48
2023-02-07T07:46:53.986Z,13.10
2023-02-07T07:51:03.719Z,11.32
2023-02-07T07:53:09.082Z,10.00
2023-02-07T07:55:15.806Z,9.13
2023-02-07T07:57:21.364Z,9.20
2023-02-07T07:59:26.717Z,9.40
2023-02-07T08:01:31.654Z,9.73
2023-02-07T08:03:39.837Z,9.68
2023-02-07T08:05:46.359Z,8.70
2023-02-07T08:07:52.063Z,10.93
2023-02-07T08:09:56.964Z,9.25
2023-02-07T08:12:01.972Z,10.20
2023-02-07T08:14:07.459Z,11.70
2023-02-07T08:16:12.651Z,11.90
2023-02-07T08:18:18.483Z,9.65
2023-02-07T08:20:26.491Z,17.40
2023-02-07T08:22:31.864Z,15.85
2023-02-07T08:24:37.287Z,13.35
2023-02-07T08:26:42.576Z,13.15
2023-02-07T08:28:49.092Z,11.85
2023-02-07T08:30:54.017Z,11.73
2023-02-07T08:32:58.946Z,11.88
2023-02-07T08:35:04.344Z,22.55
2023-02-07T08:37:13.178Z,13.18
2023-02-07T08:39:18.754Z,12.02
2023-02-07T08:41:23.715Z,14.90
2023-02-07T08:43:29.380Z,12.70
2023-02-07T08:45:34.444Z,12.77
2023-02-07T08:47:39.964Z,12.45
2023-02-07T08:49:45.406Z,16.13
2023-02-07T08:51:50.456Z,13.27
2023-02-07T08:53:59.093Z,21.30
2023-02-07T08:56:04.111Z,22.33
2023-02-07T08:58:09.293Z,13.02
2023-02-07T09:00:16.674Z,12.35
2023-02-07T09:02:21.716Z,12.23
2023-02-07T09:04:27.154Z,11.23
2023-02-07T09:06:32.416Z,12.35
2023-02-07T09:08:37.892Z,11.77
2023-02-07T09:10:47.528Z,11.85
2023-02-07T09:12:52.557Z,11.48
2023-02-07T09:14:57.492Z,11.75
2023-02-07T09:17:02.457Z,12.48
2023-02-07T09:19:10.095Z,12.13
2023-02-07T09:21:15.405Z,12.95
2023-02-07T09:23:20.339Z,11.95
2023-02-07T09:25:25.528Z,11.27
2023-02-07T09:27:33.074Z,9.55
2023-02-07T09:29:38.257Z,9.75
2023-02-07T09:31:44.288Z,10.05
2023-02-07T09:33:49.260Z,9.00
2023-02-07T09:35:55.236Z,10.00
2023-02-07T09:38:00.241Z,9.63
2023-02-07T09:40:05.526Z,9.48
2023-02-07T09:42:27.380Z,9.88
2023-02-07T09:44:52.130Z,9.13
2023-02-07T09:47:05.817Z,10.27
2023-02-07T09:49:19.773Z,10.48
2023-02-07T09:51:26.978Z,9.60
2023-02-07T09:53:43.067Z,10.77
2023-02-07T09:55:54.899Z,10.13
2023-02-07T09:58:06.073Z,9.80
2023-02-07T10:00:26.123Z,10.70
2023-02-07T10:02:36.940Z,9.82
2023-02-07T10:04:47.276Z,8.93
2023-02-07T10:06:57.681Z,9.55
2023-02-07T10:09:03.881Z,10.07
2023-02-07T10:11:20.473Z,9.63
2023-02-07T10:13:48.553Z,9.80
2023-02-07T10:16:16.618Z,9.88
2023-02-07T10:18:40.894Z,9.25
2023-02-07T10:20:54.839Z,10.93
2023-02-07T10:23:14.578Z,9.63
2023-02-07T10:25:36.972Z,10.07
2023-02-07T10:27:57.592Z,9.25
2023-02-07T10:30:13.718Z,11.25
2023-02-07T10:32:26.075Z,10.80
2023-02-07T10:34:36.670Z,9.45
2023-02-07T10:36:47.975Z,9.80
2023-02-07T10:39:09.474Z,10.50
2023-02-07T10:41:21.320Z,10.80
2023-02-07T10:43:32.890Z,9.68
2023-02-07T10:45:37.876Z,9.07
2023-02-07T10:47:46.208Z,8.55
2023-02-07T10:52:03.003Z,10.50
2023-02-07T10:54:11.314Z,8.27
2023-02-07T10:56:22.850Z,8.95
2023-02-07T10:58:28.606Z,9.48
2023-02-07T11:00:37.268Z,8.30
2023-02-07T11:02:56.410Z,9.65
2023-02-07T11:05:04.179Z,9.35
2023-02-07T11:07:11.006Z,8.40
2023-02-07T11:09:24.753Z,8.65
2023-02-07T11:11:36.786Z,8.60
2023-02-07T11:13:51.974Z,8.75
2023-02-07T11:16:04.203Z,8.55
2023-02-07T11:18:45.629Z,9.07
2023-02-07T11:20:56.361Z,8.13
2023-02-07T11:23:02.047Z,8.32
2023-02-07T11:25:10.074Z,8.73
2023-02-07T11:27:19.019Z,8.75
2023-02-07T11:29:25.924Z,8.93
2023-02-07T11:31:35.793Z,8.00
2023-02-07T11:33:44.035Z,8.95
2023-02-07T11:36:05.997Z,8.70
2023-02-07T11:38:17.409Z,6.97
2023-02-07T11:40:31.250Z,7.38
2023-02-07T11:42:38.742Z,7.63
2023-02-07T11:44:47.773Z,7.93
2023-02-07T11:46:53.808Z,7.55
2023-02-07T11:49:02.462Z,8.02
2023-02-07T11:51:13.044Z,8.45
2023-02-07T11:53:27.303Z,8.38
2023-02-07T11:55:37.975Z,8.43
2023-02-07T11:57:43.949Z,7.70
2023-02-07T11:59:52.433Z,8.80
2023-02-07T12:02:03.936Z,7.88
2023-02-07T12:04:20.511Z,8.30
2023-02-07T12:06:29.549Z,7.32
2023-02-07T12:08:38.978Z,7.75
2023-02-07T12:10:50.968Z,7.85
2023-02-07T12:13:03.279Z,8.80
2023-02-07T12:15:17.742Z,15.90
2023-02-07T12:17:33.299Z,16.38
2023-02-07T12:19:51.910Z,10.35
2023-02-07T12:22:04.822Z,7.32
2023-02-07T12:24:19.560Z,7.82
2023-02-07T12:26:28.627Z,7.97
2023-02-07T12:28:44.864Z,7.53
2023-02-07T12:30:56.324Z,7.72
2023-02-07T12:33:13.154Z,8.32
2023-02-07T12:35:29.936Z,8.10
2023-02-07T12:37:49.100Z,7.37
2023-02-07T12:40:02.643Z,8.23
2023-02-07T12:42:26.361Z,7.20
2023-02-07T12:44:38.513Z,7.43
2023-02-07T12:46:55.763Z,5.70
2023-02-07T12:49:35.954Z,5.13
2023-02-07T12:51:59.710Z,5.93
2023-02-07T12:54:23.642Z,6.05
2023-02-07T12:56:45.847Z,6.68
2023-02-07T12:59:02.290Z,6.57
2023-02-07T13:01:16.090Z,6.10
2023-02-07T13:03:45.024Z,5.88
2023-02-07T13:06:14.319Z,5.57
2023-02-07T13:08:34.896Z,6.00
2023-02-07T13:10:51.513Z,6.25
2023-02-07T13:13:03.435Z,6.53
2023-02-07T13:15:21.418Z,6.20
2023-02-07T13:17:48.829Z,6.85
2023-02-07T13:22:08.819Z,6.00
2023-02-07T13:24:19.998Z,6.80
2023-02-07T13:26:27.458Z,6.50
2023-02-07T13:28:42.905Z,6.78
2023-02-07T13:30:50.222Z,5.90
2023-02-07T13:32:55.894Z,6.45
2023-02-07T13:35:07.053Z,6.45
2023-02-07T13:37:17.630Z,6.38
2023-02-07T13:39:42.096Z,5.97
2023-02-07T13:42:02.183Z,6.00
2023-02-07T13:44:20.402Z,5.85
2023-02-07T13:46:55.757Z,6.05
2023-02-07T13:49:06.688Z,6.78
2023-02-07T13:51:24.368Z,6.05
2023-02-07T13:53:43.540Z,6.63
2023-02-07T13:55:52.254Z,6.35
2023-02-07T13:58:11.359Z,5.97
2023-02-07T14:00:24.161Z,5.90
2023-02-07T14:02:31.995Z,5.65
2023-02-07T14:04:52.756Z,5.70
2023-02-07T14:07:11.973Z,6.40
2023-02-07T14:09:26.484Z,6.10
2023-02-07T14:11:44.688Z,6.63
2023-02-07T14:13:49.755Z,6.82
2023-02-07T14:16:03.233Z,6.45
2023-02-07T14:18:29.968Z,6.57
2023-02-07T14:20:53.170Z,6.00
2023-02-07T14:23:18.948Z,5.88
2023-02-07T14:25:27.413Z,8.77
2023-02-07T14:27:37.481Z,8.45
2023-02-07T14:29:55.351Z,6.03
2023-02-07T14:32:04.088Z,5.40
2023-02-07T14:34:18.303Z,6.03
2023-02-07T14:36:31.814Z,8.25
2023-02-07T14:38:41.275Z,9.35
2023-02-07T14:41:11.116Z,7.60
2023-02-07T14:43:26.296Z,7.20
2023-02-07T14:45:34.326Z,6.57
2023-02-07T14:47:40.863Z,7.03
2023-02-07T14:49:51.121Z,6.68
2023-02-07T14:52:00.699Z,7.80
2023-02-07T14:54:11.244Z,5.97
2023-02-07T14:56:33.018Z,5.88
2023-02-07T14:58:46.395Z,5.82
2023-02-07T15:00:56.112Z,7.03
2023-02-07T15:03:06.181Z,7.03
2023-02-07T15:05:25.477Z,5.78
2023-02-07T15:07:30.371Z,6.13
2023-02-07T15:09:38.116Z,5.82
2023-02-07T15:11:43.096Z,8.60
2023-02-07T15:13:51.803Z,5.60
2023-02-07T15:16:01.951Z,6.50
2023-02-07T15:18:07.510Z,7.07
2023-02-07T15:20:18.621Z,6.25
2023-02-07T15:22:29.762Z,5.95
2023-02-07T15:24:51.045Z,6.72
2023-02-07T15:27:00.746Z,7.18
2023-02-07T15:29:20.982Z,6.13
2023-02-07T15:31:25.981Z,7.13
2023-02-07T15:33:36.812Z,6.85
2023-02-07T15:35:42.430Z,6.45
2023-02-07T15:37:48.779Z,7.05
2023-02-07T15:39:56.078Z,6.65
2023-02-07T15:42:01.538Z,6.60
2023-02-07T15:44:21.364Z,7.10
2023-02-07T15:46:26.299Z,6.65
2023-02-07T15:48:31.793Z,6.13
2023-02-07T15:50:38.705Z,6.55
2023-02-07T15:52:48.319Z,7.13
2023-02-07T15:54:56.189Z,5.95
2023-02-07T15:59:19.492Z,5.90
2023-02-07T16:01:29.950Z,6.15
2023-02-07T16:03:39.652Z,5.57
2023-02-07T16:05:45.302Z,5.90
2023-02-07T16:07:50.390Z,6.05
2023-02-07T16:09:55.417Z,16.08
2023-02-07T16:12:00.716Z,5.75
2023-02-07T16:14:17.043Z,6.53
2023-02-07T16:16:27.565Z,7.35
2023-02-07T16:18:41.717Z,6.70
2023-02-07T16:20:46.717Z,6.25
2023-02-07T16:22:53.424Z,6.25
2023-02-07T16:24:58.679Z,6.35
2023-02-07T16:27:03.891Z,7.30
2023-02-07T16:29:09.412Z,6.78
2023-02-07T16:31:17.854Z,7.07
2023-02-07T16:33:23.711Z,6.60
2023-02-07T16:35:30.407Z,6.72
2023-02-07T16:37:36.585Z,6.28
2023-02-07T16:39:41.597Z,6.97
2023-02-07T16:41:51.337Z,6.40
2023-02-07T16:43:58.846Z,6.65
2023-02-07T16:46:04.449Z,6.15
2023-02-07T16:48:17.580Z,6.38
2023-02-07T16:50:25.458Z,6.07
2023-02-07T16:52:30.396Z,6.95
2023-02-07T16:54:35.797Z,7.63
2023-02-07T16:56:41.585Z,6.53
2023-02-07T16:58:47.078Z,6.93
2023-02-07T17:00:52.046Z,7.43
2023-02-07T17:02:57.906Z,7.25
2023-02-07T17:05:07.043Z,7.47
2023-02-07T17:07:13.565Z,6.82
2023-02-07T17:11:29.362Z,6.70
2023-02-07T17:13:34.904Z,6.07
2023-02-07T17:15:41.302Z,6.68
2023-02-07T17:17:46.706Z,6.63
2023-02-07T17:19:51.687Z,8.15
2023-02-07T17:21:59.719Z,7.43
2023-02-07T17:26:23.116Z,7.25
2023-02-07T17:28:29.382Z,7.80
2023-02-07T17:30:41.635Z,7.93
2023-02-07T17:32:47.539Z,7.95
2023-02-07T17:34:52.529Z,7.88
2023-02-07T17:37:00.092Z,7.57
2023-02-07T17:41:13.529Z,7.90
2023-02-07T17:43:18.482Z,8.18
2023-02-07T17:45:23.616Z,8.07
2023-02-07T17:47:29.008Z,7.75
2023-02-07T17:49:36.194Z,7.75
2023-02-07T17:51:42.271Z,8.40
2023-02-07T17:53:50.067Z,8.40
2023-02-07T17:55:55.377Z,8.82
2023-02-07T17:58:02.483Z,8.90
2023-02-07T18:00:09.493Z,9.15
2023-02-07T18:02:17.631Z,8.00
2023-02-07T18:04:22.607Z,8.98
2023-02-07T18:06:30.645Z,8.05
2023-02-07T18:08:35.631Z,7.55
2023-02-07T18:10:43.846Z,6.85
2023-02-07T18:12:49.400Z,8.40
2023-02-07T18:14:56.744Z,8.20
2023-02-07T18:17:01.732Z,7.68
2023-02-07T18:19:06.780Z,7.55
2023-02-07T18:21:13.676Z,7.85
2023-02-07T18:23:18.972Z,7.20
2023-02-07T18:25:24.477Z,7.50
2023-02-07T18:27:32.042Z,7.90
2023-02-07T18:29:37.573Z,8.15
2023-02-07T18:31:42.621Z,8.50
2023-02-07T18:33:50.279Z,7.25
2023-02-07T18:38:04.498Z,7.43
2023-02-07T18:40:13.268Z,7.60
2023-02-07T18:42:20.721Z,8.02
2023-02-07T18:44:28.919Z,10.02
2023-02-07T18:46:34.460Z,11.38
2023-02-07T18:48:39.915Z,11.25
2023-02-07T18:50:46.914Z,11.70
2023-02-07T18:52:52.096Z,11.00
2023-02-07T18:55:00.327Z,10.45
2023-02-07T18:59:10.674Z,6.82
2023-02-07T19:01:22.971Z,7.88
2023-02-07T19:03:27.921Z,7.35
2023-02-07T19:05:33.207Z,7.45
2023-02-07T19:07:38.224Z,7.80
2023-02-07T19:09:43.159Z,6.93
2023-02-07T19:11:48.276Z,7.03
2023-02-07T19:13:55.466Z,7.22
2023-02-07T19:16:06.445Z,7.18
2023-02-07T19:18:15.010Z,6.93
2023-02-07T19:20:20.915Z,7.25
2023-02-07T19:22:35.271Z,7.43
2023-02-07T19:24:42.143Z,8.82
2023-02-07T19:26:47.963Z,7.22
2023-02-07T19:28:54.902Z,7.63
2023-02-07T19:31:00.030Z,8.03
2023-02-07T19:33:05.022Z,7.47
2023-02-07T19:35:13.408Z,8.50
2023-02-07T19:37:18.966Z,7.88
2023-02-07T19:39:24.592Z,8.50
2023-02-07T19:41:31.856Z,8.05
2023-02-07T19:43:37.264Z,7.28
2023-02-07T19:45:42.310Z,6.93
2023-02-07T19:47:48.140Z,7.45
2023-02-07T19:49:53.342Z,6.95
2023-02-07T19:52:01.641Z,7.55
2023-02-07T19:54:07.334Z,7.70
2023-02-07T19:56:16.721Z,7.88
2023-02-07T19:58:22.043Z,9.18
2023-02-07T20:00:29.488Z,7.60
2023-02-07T20:02:35.301Z,7.78
2023-02-07T20:04:40.400Z,7.60
2023-02-07T20:06:45.591Z,9.18
2023-02-07T20:08:53.727Z,8.55
2023-02-07T20:10:58.674Z,8.93
2023-02-07T20:13:03.570Z,8.80
2023-02-07T20:15:09.675Z,8.80
2023-02-07T20:17:14.904Z,8.85
2023-02-07T20:19:20.483Z,8.95
2023-02-07T20:21:30.858Z,8.32
2023-02-07T20:23:38.649Z,7.60
2023-02-07T20:25:46.566Z,7.70
2023-02-07T20:27:51.875Z,7.68
2023-02-07T20:29:56.978Z,7.85
2023-02-07T20:32:01.984Z,8.43
2023-02-07T20:34:07.310Z,8.13
2023-02-07T20:36:14.528Z,8.43
2023-02-07T20:38:20.097Z,7.93
2023-02-07T20:40:25.359Z,7.45
2023-02-07T20:42:34.536Z,8.30
2023-02-07T20:44:40.083Z,8.38
2023-02-07T20:46:47.291Z,8.50
2023-02-07T20:48:52.946Z,10.00
2023-02-07T20:50:59.998Z,9.23
2023-02-07T20:53:08.671Z,8.75
2023-02-07T20:55:13.621Z,8.82
2023-02-07T20:57:19.175Z,8.45
2023-02-07T20:59:30.089Z,8.75
2023-02-07T21:01:37.530Z,9.30
2023-02-07T21:03:45.833Z,9.20
2023-02-07T21:05:51.649Z,9.65
2023-02-07T21:07:57.336Z,8.98
2023-02-07T21:10:02.499Z,8.77
2023-02-07T21:12:09.072Z,8.40
2023-02-07T21:14:18.358Z,9.50
2023-02-07T21:16:26.256Z,7.88
2023-02-07T21:20:36.843Z,8.93
2023-02-07T21:22:41.774Z,10.40
2023-02-07T21:24:47.135Z,9.95
2023-02-07T21:26:54.023Z,10.70
2023-02-07T21:29:04.663Z,10.55
2023-02-07T21:31:14.022Z,10.65
2023-02-07T21:33:21.654Z,12.25
2023-02-07T21:35:26.598Z,13.02
2023-02-07T21:37:32.430Z,15.07
2023-02-07T21:39:37.395Z,14.05
2023-02-07T21:41:45.449Z,14.60
2023-02-07T21:43:51.179Z,14.02
2023-02-07T21:45:56.846Z,13.88
2023-02-07T21:48:02.156Z,10.40
2023-02-07T21:50:10.296Z,8.98
2023-02-07T21:52:16.483Z,8.43
2023-02-07T21:54:21.901Z,8.30
2023-02-07T21:56:30.382Z,8.55
2023-02-07T21:58:36.144Z,7.95
2023-02-07T22:00:41.421Z,8.00
2023-02-07T22:02:47.359Z,8.50
2023-02-07T22:04:52.412Z,7.68
2023-02-07T22:07:00.719Z,8.40
2023-02-07T22:11:14.469Z,7.68
2023-02-07T22:13:19.391Z,8.32
2023-02-07T22:15:24.364Z,7.80
2023-02-07T22:17:29.427Z,6.88
2023-02-07T22:19:34.376Z,7.22
2023-02-07T22:21:40.956Z,7.38
2023-02-07T22:23:48.731Z,7.38
2023-02-07T22:25:55.071Z,7.20
2023-02-07T22:28:00.689Z,7.80
2023-02-07T22:30:05.759Z,8.32
2023-02-07T22:32:10.993Z,8.82
2023-02-07T22:34:17.634Z,8.98
2023-02-07T22:36:25.180Z,9.63
2023-02-07T22:40:41.213Z,8.55
2023-02-07T22:42:46.684Z,9.40
2023-02-07T22:44:51.930Z,8.77
2023-02-07T22:46:57.261Z,7.65
2023-02-07T22:49:02.347Z,7.43
2023-02-07T22:51:15.656Z,9.23
2023-02-07T22:53:20.603Z,8.43
2023-02-07T22:55:25.950Z,9.48
2023-02-07T22:57:34.245Z,8.98
2023-02-07T23:01:45.988Z,7.95
2023-02-07T23:03:51.880Z,8.25
2023-02-07T23:05:57.357Z,7.40
2023-02-07T23:08:02.344Z,7.22
2023-02-07T23:10:10.611Z,7.30
2023-02-07T23:12:16.423Z,7.75
2023-02-07T23:14:24.577Z,7.05
2023-02-07T23:16:32.292Z,7.43
2023-02-07T23:18:37.607Z,7.97
2023-02-07T23:20:47.464Z,7.35
2023-02-07T23:22:52.434Z,7.32
2023-02-07T23:24:58.546Z,6.97
2023-02-07T23:27:04.706Z,6.95
2023-02-07T23:29:09.859Z,6.50
2023-02-07T23:31:20.326Z,7.60
2023-02-07T23:33:25.378Z,6.72
2023-02-07T23:35:30.397Z,6.53
2023-02-07T23:37:35.750Z,6.35
2023-02-07T23:39:40.687Z,7.18
2023-02-07T23:41:45.763Z,6.35
2023-02-07T23:43:54.660Z,6.05
2023-02-07T23:45:59.654Z,6.88
2023-02-07T23:48:07.692Z,6.75
2023-02-07T23:50:13.045Z,7.30
2023-02-07T23:52:18.404Z,7.68
2023-02-07T23:54:23.504Z,9.40
2023-02-07T23:56:28.525Z,8.48
2023-02-07T23:58:35.479Z,8.70
